sensor_id;sensor_type;location;lat;lon;timestamp;P1;durP1;ratioP1;P2;durP2;ratioP2
781;SDS011;374;52.568;13.402;2023-06-22T00:01:08;16.17;;;14.70;;
781;SDS011;374;52.568;13.402;2023-06-22T00:03:34;15.40;;;14.10;;
781;SDS011;374;52.568;13.402;2023-06-22T00:05:59;16.27;;;14.77;;
781;SDS011;374;52.568;13.402;2023-06-22T00:08:24;16.00;;;14.60;;
781;SDS011;374;52.568;13.402;2023-06-22T00:10:50;17.03;;;15.43;;
781;SDS011;374;52.568;13.402;2023-06-22T00:13:16;16.57;;;14.97;;
781;SDS011;374;52.568;13.402;2023-06-22T00:15:42;16.30;;;14.90;;
781;SDS011;374;52.568;13.402;2023-06-22T00:18:09;14.97;;;13.57;;
781;SDS011;374;52.568;13.402;2023-06-22T00:20:35;15.60;;;14.37;;
781;SDS011;374;52.568;13.402;2023-06-22T00:23:04;15.93;;;14.37;;
781;SDS011;374;52.568;13.402;2023-06-22T00:25:37;15.70;;;14.30;;
781;SDS011;374;52.568;13.402;2023-06-22T00:28:06;16.00;;;14.60;;
781;SDS011;374;52.568;13.402;2023-06-22T00:30:32;15.53;;;14.10;;
781;SDS011;374;52.568;13.402;2023-06-22T00:32:58;15.93;;;14.63;;
781;SDS011;374;52.568;13.402;2023-06-22T00:35:25;15.70;;;14.20;;
781;SDS011;374;52.568;13.402;2023-06-22T00:37:57;15.90;;;14.50;;
781;SDS011;374;52.568;13.402;2023-06-22T00:40:28;16.83;;;15.27;;
781;SDS011;374;52.568;13.402;2023-06-22T00:42:57;15.20;;;13.80;;
781;SDS011;374;52.568;13.402;2023-06-22T00:45:23;15.93;;;14.43;;
781;SDS011;374;52.568;13.402;2023-06-22T00:47:53;14.70;;;13.50;;
781;SDS011;374;52.568;13.402;2023-06-22T00:50:21;14.50;;;13.30;;
781;SDS011;374;52.568;13.402;2023-06-22T00:52:49;15.77;;;14.37;;
781;SDS011;374;52.568;13.402;2023-06-22T00:55:17;15.17;;;13.77;;
781;SDS011;374;52.568;13.402;2023-06-22T00:57:47;15.17;;;13.87;;
781;SDS011;374;52.568;13.402;2023-06-22T01:00:13;15.20;;;13.63;;
781;SDS011;374;52.568;13.402;2023-06-22T01:02:42;14.67;;;13.43;;
781;SDS011;374;52.568;13.402;2023-06-22T01:05:10;14.47;;;13.27;;
781;SDS011;374;52.568;13.402;2023-06-22T01:07:41;14.43;;;13.10;;
781;SDS011;374;52.568;13.402;2023-06-22T01:10:23;14.43;;;13.13;;
781;SDS011;374;52.568;13.402;2023-06-22T01:12:55;16.93;;;13.60;;
781;SDS011;374;52.568;13.402;2023-06-22T01:15:40;15.43;;;14.07;;
781;SDS011;374;52.568;13.402;2023-06-22T01:18:11;14.03;;;12.53;;
781;SDS011;374;52.568;13.402;2023-06-22T01:20:39;15.20;;;13.90;;
781;SDS011;374;52.568;13.402;2023-06-22T01:23:10;14.97;;;13.77;;
781;SDS011;374;52.568;13.402;2023-06-22T01:25:43;14.97;;;13.70;;
781;SDS011;374;52.568;13.402;2023-06-22T01:28:17;14.67;;;13.27;;
781;SDS011;374;52.568;13.402;2023-06-22T01:30:55;14.57;;;13.27;;
781;SDS011;374;52.568;13.402;2023-06-22T01:33:31;14.63;;;13.43;;
781;SDS011;374;52.568;13.402;2023-06-22T01:36:00;14.70;;;13.37;;
781;SDS011;374;52.568;13.402;2023-06-22T01:38:27;14.00;;;12.70;;
781;SDS011;374;52.568;13.402;2023-06-22T01:40:54;15.10;;;13.70;;
781;SDS011;374;52.568;13.402;2023-06-22T01:43:21;14.30;;;12.77;;
781;SDS011;374;52.568;13.402;2023-06-22T01:45:49;15.10;;;13.80;;
781;SDS011;374;52.568;13.402;2023-06-22T01:48:16;14.13;;;12.73;;
781;SDS011;374;52.568;13.402;2023-06-22T01:50:42;15.33;;;13.40;;
781;SDS011;374;52.568;13.402;2023-06-22T01:53:08;15.27;;;13.77;;
781;SDS011;374;52.568;13.402;2023-06-22T01:55:33;16.57;;;15.17;;
781;SDS011;374;52.568;13.402;2023-06-22T01:57:59;16.33;;;14.90;;
781;SDS011;374;52.568;13.402;2023-06-22T02:00:25;15.27;;;13.83;;
781;SDS011;374;52.568;13.402;2023-06-22T02:03:02;14.93;;;13.70;;
781;SDS011;374;52.568;13.402;2023-06-22T02:05:35;15.40;;;14.07;;
781;SDS011;374;52.568;13.402;2023-06-22T02:08:07;15.77;;;14.43;;
781;SDS011;374;52.568;13.402;2023-06-22T02:10:36;15.97;;;14.47;;
781;SDS011;374;52.568;13.402;2023-06-22T02:13:04;16.97;;;15.47;;
781;SDS011;374;52.568;13.402;2023-06-22T02:15:32;16.20;;;14.80;;
781;SDS011;374;52.568;13.402;2023-06-22T02:17:59;17.30;;;15.77;;
781;SDS011;374;52.568;13.402;2023-06-22T02:20:25;14.83;;;13.63;;
781;SDS011;374;52.568;13.402;2023-06-22T02:22:50;16.83;;;15.30;;
781;SDS011;374;52.568;13.402;2023-06-22T02:25:16;16.20;;;14.70;;
781;SDS011;374;52.568;13.402;2023-06-22T02:27:41;16.53;;;15.03;;
781;SDS011;374;52.568;13.402;2023-06-22T02:30:10;16.60;;;15.10;;
781;SDS011;374;52.568;13.402;2023-06-22T02:32:36;17.80;;;16.30;;
781;SDS011;374;52.568;13.402;2023-06-22T02:35:01;15.73;;;14.33;;
781;SDS011;374;52.568;13.402;2023-06-22T02:37:31;18.43;;;16.60;;
781;SDS011;374;52.568;13.402;2023-06-22T02:39:57;16.37;;;15.07;;
781;SDS011;374;52.568;13.402;2023-06-22T02:42:23;18.17;;;16.23;;
781;SDS011;374;52.568;13.402;2023-06-22T02:44:48;19.33;;;17.47;;
781;SDS011;374;52.568;13.402;2023-06-22T02:47:14;17.60;;;15.80;;
781;SDS011;374;52.568;13.402;2023-06-22T02:49:39;16.60;;;15.10;;
781;SDS011;374;52.568;13.402;2023-06-22T02:52:05;17.60;;;16.10;;
781;SDS011;374;52.568;13.402;2023-06-22T02:54:30;18.20;;;16.60;;
781;SDS011;374;52.568;13.402;2023-06-22T02:56:56;18.80;;;17.10;;
781;SDS011;374;52.568;13.402;2023-06-22T02:59:21;18.53;;;16.80;;
781;SDS011;374;52.568;13.402;2023-06-22T03:01:49;19.00;;;17.40;;
781;SDS011;374;52.568;13.402;2023-06-22T03:04:15;18.17;;;16.57;;
781;SDS011;374;52.568;13.402;2023-06-22T03:06:41;18.80;;;17.10;;
781;SDS011;374;52.568;13.402;2023-06-22T03:09:06;18.20;;;16.53;;
781;SDS011;374;52.568;13.402;2023-06-22T03:11:32;20.70;;;18.70;;
781;SDS011;374;52.568;13.402;2023-06-22T03:13:58;19.67;;;17.80;;
781;SDS011;374;52.568;13.402;2023-06-22T03:16:27;20.33;;;18.43;;
781;SDS011;374;52.568;13.402;2023-06-22T03:18:53;18.83;;;17.00;;
781;SDS011;374;52.568;13.402;2023-06-22T03:21:19;20.33;;;18.43;;
781;SDS011;374;52.568;13.402;2023-06-22T03:23:47;19.50;;;17.77;;
781;SDS011;374;52.568;13.402;2023-06-22T03:26:12;17.20;;;15.60;;
781;SDS011;374;52.568;13.402;2023-06-22T03:28:38;18.93;;;17.23;;
781;SDS011;374;52.568;13.402;2023-06-22T03:31:03;19.30;;;17.27;;
781;SDS011;374;52.568;13.402;2023-06-22T03:33:31;18.10;;;16.40;;
781;SDS011;374;52.568;13.402;2023-06-22T03:35:57;19.80;;;17.90;;
781;SDS011;374;52.568;13.402;2023-06-22T03:38:22;19.83;;;17.97;;
781;SDS011;374;52.568;13.402;2023-06-22T03:40:48;19.27;;;17.43;;
781;SDS011;374;52.568;13.402;2023-06-22T03:43:13;19.53;;;17.73;;
781;SDS011;374;52.568;13.402;2023-06-22T03:45:39;17.73;;;15.93;;
781;SDS011;374;52.568;13.402;2023-06-22T03:48:05;18.10;;;16.20;;
781;SDS011;374;52.568;13.402;2023-06-22T03:50:30;18.27;;;16.70;;
781;SDS011;374;52.568;13.402;2023-06-22T03:52:56;17.07;;;15.27;;
781;SDS011;374;52.568;13.402;2023-06-22T03:55:21;17.60;;;16.00;;
781;SDS011;374;52.568;13.402;2023-06-22T03:57:47;15.50;;;14.10;;
781;SDS011;374;52.568;13.402;2023-06-22T04:00:13;16.30;;;14.70;;
781;SDS011;374;52.568;13.402;2023-06-22T04:02:40;15.67;;;14.07;;
781;SDS011;374;52.568;13.402;2023-06-22T04:05:06;17.70;;;15.57;;
781;SDS011;374;52.568;13.402;2023-06-22T04:07:33;17.40;;;15.30;;
781;SDS011;374;52.568;13.402;2023-06-22T04:09:59;16.57;;;14.97;;
781;SDS011;374;52.568;13.402;2023-06-22T04:12:24;16.83;;;15.23;;
781;SDS011;374;52.568;13.402;2023-06-22T04:14:50;16.50;;;14.90;;
781;SDS011;374;52.568;13.402;2023-06-22T04:17:15;17.13;;;14.67;;
781;SDS011;374;52.568;13.402;2023-06-22T04:19:42;15.17;;;13.93;;
781;SDS011;374;52.568;13.402;2023-06-22T04:22:08;19.30;;;14.30;;
781;SDS011;374;52.568;13.402;2023-06-22T04:24:33;15.87;;;14.37;;
781;SDS011;374;52.568;13.402;2023-06-22T04:26:59;14.80;;;13.30;;
781;SDS011;374;52.568;13.402;2023-06-22T04:29:27;12.93;;;11.83;;
781;SDS011;374;52.568;13.402;2023-06-22T04:31:55;14.13;;;12.83;;
781;SDS011;374;52.568;13.402;2023-06-22T04:34:27;13.67;;;12.33;;
781;SDS011;374;52.568;13.402;2023-06-22T04:36:53;15.27;;;13.80;;
781;SDS011;374;52.568;13.402;2023-06-22T04:39:19;13.83;;;12.53;;
781;SDS011;374;52.568;13.402;2023-06-22T04:41:45;12.43;;;11.33;;
781;SDS011;374;52.568;13.402;2023-06-22T04:44:11;12.93;;;11.07;;
781;SDS011;374;52.568;13.402;2023-06-22T04:46:52;14.07;;;12.67;;
781;SDS011;374;52.568;13.402;2023-06-22T04:49:20;14.57;;;13.33;;
781;SDS011;374;52.568;13.402;2023-06-22T04:51:46;14.50;;;13.13;;
781;SDS011;374;52.568;13.402;2023-06-22T04:54:11;12.63;;;11.63;;
781;SDS011;374;52.568;13.402;2023-06-22T04:56:37;13.97;;;12.77;;
781;SDS011;374;52.568;13.402;2023-06-22T04:59:05;13.67;;;11.90;;
781;SDS011;374;52.568;13.402;2023-06-22T05:01:31;12.83;;;11.70;;
781;SDS011;374;52.568;13.402;2023-06-22T05:03:57;14.87;;;12.97;;
781;SDS011;374;52.568;13.402;2023-06-22T05:06:25;11.87;;;10.77;;
781;SDS011;374;52.568;13.402;2023-06-22T05:08:55;12.13;;;10.90;;
781;SDS011;374;52.568;13.402;2023-06-22T05:11:28;10.33;;;9.47;;
781;SDS011;374;52.568;13.402;2023-06-22T05:13:54;9.40;;;8.70;;
781;SDS011;374;52.568;13.402;2023-06-22T05:16:20;9.60;;;8.80;;
781;SDS011;374;52.568;13.402;2023-06-22T05:18:55;9.20;;;8.30;;
781;SDS011;374;52.568;13.402;2023-06-22T05:21:21;9.43;;;8.50;;
781;SDS011;374;52.568;13.402;2023-06-22T05:23:48;9.33;;;8.63;;
781;SDS011;374;52.568;13.402;2023-06-22T05:26:16;7.43;;;6.77;;
781;SDS011;374;52.568;13.402;2023-06-22T05:28:41;10.17;;;8.00;;
781;SDS011;374;52.568;13.402;2023-06-22T05:31:10;8.27;;;7.43;;
781;SDS011;374;52.568;13.402;2023-06-22T05:33:37;7.70;;;7.00;;
781;SDS011;374;52.568;13.402;2023-06-22T05:36:02;8.30;;;7.40;;
781;SDS011;374;52.568;13.402;2023-06-22T05:38:28;9.07;;;6.80;;
781;SDS011;374;52.568;13.402;2023-06-22T05:40:54;7.13;;;6.53;;
781;SDS011;374;52.568;13.402;2023-06-22T05:43:19;8.60;;;7.40;;
781;SDS011;374;52.568;13.402;2023-06-22T05:45:45;9.70;;;7.20;;
781;SDS011;374;52.568;13.402;2023-06-22T05:48:10;6.53;;;6.00;;
781;SDS011;374;52.568;13.402;2023-06-22T05:50:36;6.27;;;5.77;;
781;SDS011;374;52.568;13.402;2023-06-22T05:53:02;7.17;;;6.10;;
781;SDS011;374;52.568;13.402;2023-06-22T05:55:28;6.20;;;5.80;;
781;SDS011;374;52.568;13.402;2023-06-22T05:57:53;5.93;;;5.33;;
781;SDS011;374;52.568;13.402;2023-06-22T06:00:19;7.07;;;6.37;;
781;SDS011;374;52.568;13.402;2023-06-22T06:02:44;7.17;;;6.23;;
781;SDS011;374;52.568;13.402;2023-06-22T06:05:11;6.60;;;5.30;;
781;SDS011;374;52.568;13.402;2023-06-22T06:07:38;6.23;;;5.63;;
781;SDS011;374;52.568;13.402;2023-06-22T06:10:04;6.60;;;6.00;;
781;SDS011;374;52.568;13.402;2023-06-22T06:12:31;5.93;;;5.43;;
781;SDS011;374;52.568;13.402;2023-06-22T06:14:56;6.90;;;6.30;;
781;SDS011;374;52.568;13.402;2023-06-22T06:17:22;7.00;;;6.03;;
781;SDS011;374;52.568;13.402;2023-06-22T06:19:47;6.63;;;5.93;;
781;SDS011;374;52.568;13.402;2023-06-22T06:22:13;9.07;;;5.30;;
781;SDS011;374;52.568;13.402;2023-06-22T06:24:38;8.17;;;6.27;;
781;SDS011;374;52.568;13.402;2023-06-22T06:27:04;8.27;;;6.10;;
781;SDS011;374;52.568;13.402;2023-06-22T06:29:29;7.53;;;6.70;;
781;SDS011;374;52.568;13.402;2023-06-22T06:31:55;7.80;;;6.37;;
781;SDS011;374;52.568;13.402;2023-06-22T06:34:21;7.37;;;6.70;;
781;SDS011;374;52.568;13.402;2023-06-22T06:36:47;6.73;;;6.10;;
781;SDS011;374;52.568;13.402;2023-06-22T06:39:13;5.80;;;5.40;;
781;SDS011;374;52.568;13.402;2023-06-22T06:41:41;5.87;;;5.37;;
781;SDS011;374;52.568;13.402;2023-06-22T06:44:07;6.73;;;6.03;;
781;SDS011;374;52.568;13.402;2023-06-22T06:46:32;5.40;;;4.80;;
781;SDS011;374;52.568;13.402;2023-06-22T06:48:58;5.80;;;5.30;;
781;SDS011;374;52.568;13.402;2023-06-22T06:51:23;6.60;;;6.00;;
781;SDS011;374;52.568;13.402;2023-06-22T06:53:49;7.93;;;4.70;;
781;SDS011;374;52.568;13.402;2023-06-22T06:56:14;6.33;;;5.00;;
781;SDS011;374;52.568;13.402;2023-06-22T06:58:41;6.53;;;4.90;;
781;SDS011;374;52.568;13.402;2023-06-22T07:01:10;4.77;;;4.37;;
781;SDS011;374;52.568;13.402;2023-06-22T07:03:37;5.70;;;4.90;;
781;SDS011;374;52.568;13.402;2023-06-22T07:06:03;7.83;;;5.13;;
781;SDS011;374;52.568;13.402;2023-06-22T07:08:28;5.33;;;4.83;;
781;SDS011;374;52.568;13.402;2023-06-22T07:10:54;4.93;;;4.50;;
781;SDS011;374;52.568;13.402;2023-06-22T07:13:20;5.57;;;5.07;;
781;SDS011;374;52.568;13.402;2023-06-22T07:15:45;6.07;;;4.60;;
781;SDS011;374;52.568;13.402;2023-06-22T07:18:11;6.57;;;4.90;;
781;SDS011;374;52.568;13.402;2023-06-22T07:20:36;5.87;;;5.47;;
781;SDS011;374;52.568;13.402;2023-06-22T07:23:02;4.80;;;4.40;;
781;SDS011;374;52.568;13.402;2023-06-22T07:25:28;4.40;;;4.00;;
781;SDS011;374;52.568;13.402;2023-06-22T07:28:00;6.30;;;5.67;;
781;SDS011;374;52.568;13.402;2023-06-22T07:30:27;4.93;;;4.40;;
781;SDS011;374;52.568;13.402;2023-06-22T07:32:54;5.30;;;4.70;;
781;SDS011;374;52.568;13.402;2023-06-22T07:35:20;4.90;;;4.40;;
781;SDS011;374;52.568;13.402;2023-06-22T07:37:46;5.20;;;4.80;;
781;SDS011;374;52.568;13.402;2023-06-22T07:40:12;6.00;;;4.63;;
781;SDS011;374;52.568;13.402;2023-06-22T07:42:37;4.37;;;4.07;;
781;SDS011;374;52.568;13.402;2023-06-22T07:45:03;5.77;;;4.23;;
781;SDS011;374;52.568;13.402;2023-06-22T07:47:30;5.17;;;4.77;;
781;SDS011;374;52.568;13.402;2023-06-22T07:49:59;4.93;;;3.80;;
781;SDS011;374;52.568;13.402;2023-06-22T07:52:26;5.77;;;4.47;;
781;SDS011;374;52.568;13.402;2023-06-22T07:54:55;3.50;;;3.20;;
781;SDS011;374;52.568;13.402;2023-06-22T07:57:21;7.10;;;4.00;;
781;SDS011;374;52.568;13.402;2023-06-22T07:59:46;4.43;;;4.03;;
781;SDS011;374;52.568;13.402;2023-06-22T08:02:12;4.20;;;3.90;;
781;SDS011;374;52.568;13.402;2023-06-22T08:04:38;4.50;;;4.10;;
781;SDS011;374;52.568;13.402;2023-06-22T08:07:04;4.33;;;4.03;;
781;SDS011;374;52.568;13.402;2023-06-22T08:09:31;4.77;;;4.20;;
781;SDS011;374;52.568;13.402;2023-06-22T08:11:57;4.20;;;3.80;;
781;SDS011;374;52.568;13.402;2023-06-22T08:14:25;3.93;;;3.60;;
781;SDS011;374;52.568;13.402;2023-06-22T08:16:51;3.97;;;3.67;;
781;SDS011;374;52.568;13.402;2023-06-22T08:19:16;4.13;;;3.70;;
781;SDS011;374;52.568;13.402;2023-06-22T08:21:42;4.30;;;3.90;;
781;SDS011;374;52.568;13.402;2023-06-22T08:24:08;3.90;;;3.60;;
781;SDS011;374;52.568;13.402;2023-06-22T08:26:34;3.80;;;3.50;;
781;SDS011;374;52.568;13.402;2023-06-22T08:29:02;4.13;;;3.70;;
781;SDS011;374;52.568;13.402;2023-06-22T08:31:28;3.47;;;3.17;;
781;SDS011;374;52.568;13.402;2023-06-22T08:33:53;5.40;;;3.47;;
781;SDS011;374;52.568;13.402;2023-06-22T08:36:19;4.13;;;3.83;;
781;SDS011;374;52.568;13.402;2023-06-22T08:38:44;3.70;;;3.40;;
781;SDS011;374;52.568;13.402;2023-06-22T08:41:13;3.73;;;3.53;;
781;SDS011;374;52.568;13.402;2023-06-22T08:43:38;4.00;;;3.63;;
781;SDS011;374;52.568;13.402;2023-06-22T08:46:04;4.27;;;3.60;;
781;SDS011;374;52.568;13.402;2023-06-22T08:48:29;3.13;;;2.93;;
781;SDS011;374;52.568;13.402;2023-06-22T08:50:55;4.30;;;4.00;;
781;SDS011;374;52.568;13.402;2023-06-22T08:53:20;4.53;;;3.97;;
781;SDS011;374;52.568;13.402;2023-06-22T08:55:46;4.03;;;3.67;;
781;SDS011;374;52.568;13.402;2023-06-22T08:58:11;3.73;;;3.47;;
781;SDS011;374;52.568;13.402;2023-06-22T09:00:37;3.83;;;3.53;;
781;SDS011;374;52.568;13.402;2023-06-22T09:03:02;4.47;;;4.07;;
781;SDS011;374;52.568;13.402;2023-06-22T09:05:28;4.43;;;4.13;;
781;SDS011;374;52.568;13.402;2023-06-22T09:07:56;4.20;;;3.90;;
781;SDS011;374;52.568;13.402;2023-06-22T09:10:21;5.00;;;4.03;;
781;SDS011;374;52.568;13.402;2023-06-22T09:12:47;4.70;;;4.20;;
781;SDS011;374;52.568;13.402;2023-06-22T09:15:12;5.10;;;4.60;;
781;SDS011;374;52.568;13.402;2023-06-22T09:17:38;7.13;;;4.03;;
781;SDS011;374;52.568;13.402;2023-06-22T09:20:05;5.30;;;4.90;;
781;SDS011;374;52.568;13.402;2023-06-22T09:22:32;7.80;;;4.47;;
781;SDS011;374;52.568;13.402;2023-06-22T09:24:58;5.23;;;4.80;;
781;SDS011;374;52.568;13.402;2023-06-22T09:27:24;5.37;;;4.60;;
781;SDS011;374;52.568;13.402;2023-06-22T09:29:50;5.77;;;5.30;;
781;SDS011;374;52.568;13.402;2023-06-22T09:32:15;5.50;;;5.10;;
781;SDS011;374;52.568;13.402;2023-06-22T09:34:41;5.53;;;5.03;;
781;SDS011;374;52.568;13.402;2023-06-22T09:37:06;5.10;;;4.70;;
781;SDS011;374;52.568;13.402;2023-06-22T09:39:32;6.03;;;5.43;;
781;SDS011;374;52.568;13.402;2023-06-22T09:41:58;5.70;;;5.30;;
781;SDS011;374;52.568;13.402;2023-06-22T09:44:25;4.43;;;4.13;;
781;SDS011;374;52.568;13.402;2023-06-22T09:46:50;9.10;;;4.53;;
781;SDS011;374;52.568;13.402;2023-06-22T09:49:17;5.60;;;4.80;;
781;SDS011;374;52.568;13.402;2023-06-22T09:51:43;8.43;;;4.80;;
781;SDS011;374;52.568;13.402;2023-06-22T09:54:08;5.00;;;4.17;;
781;SDS011;374;52.568;13.402;2023-06-22T09:56:34;5.53;;;4.73;;
781;SDS011;374;52.568;13.402;2023-06-22T09:58:59;4.83;;;3.87;;
781;SDS011;374;52.568;13.402;2023-06-22T10:01:25;5.27;;;4.80;;
781;SDS011;374;52.568;13.402;2023-06-22T10:03:52;5.70;;;5.20;;
781;SDS011;374;52.568;13.402;2023-06-22T10:06:19;4.70;;;4.40;;
781;SDS011;374;52.568;13.402;2023-06-22T10:08:45;4.20;;;3.90;;
781;SDS011;374;52.568;13.402;2023-06-22T10:11:10;4.97;;;4.57;;
781;SDS011;374;52.568;13.402;2023-06-22T10:13:36;6.40;;;4.23;;
781;SDS011;374;52.568;13.402;2023-06-22T10:16:01;5.40;;;4.03;;
781;SDS011;374;52.568;13.402;2023-06-22T10:18:27;4.90;;;4.40;;
781;SDS011;374;52.568;13.402;2023-06-22T10:20:52;4.60;;;4.30;;
781;SDS011;374;52.568;13.402;2023-06-22T10:23:18;4.43;;;4.03;;
781;SDS011;374;52.568;13.402;2023-06-22T10:25:44;5.70;;;5.17;;
781;SDS011;374;52.568;13.402;2023-06-22T10:28:10;4.90;;;4.50;;
781;SDS011;374;52.568;13.402;2023-06-22T10:30:35;5.33;;;4.93;;
781;SDS011;374;52.568;13.402;2023-06-22T10:33:01;7.00;;;5.07;;
781;SDS011;374;52.568;13.402;2023-06-22T10:35:26;4.90;;;4.47;;
781;SDS011;374;52.568;13.402;2023-06-22T10:37:52;5.60;;;5.10;;
781;SDS011;374;52.568;13.402;2023-06-22T10:40:17;6.03;;;5.43;;
781;SDS011;374;52.568;13.402;2023-06-22T10:42:43;6.70;;;4.90;;
781;SDS011;374;52.568;13.402;2023-06-22T10:45:09;4.87;;;4.50;;
781;SDS011;374;52.568;13.402;2023-06-22T10:47:35;6.80;;;5.40;;
781;SDS011;374;52.568;13.402;2023-06-22T10:50:01;4.97;;;4.57;;
781;SDS011;374;52.568;13.402;2023-06-22T10:52:27;4.93;;;4.53;;
781;SDS011;374;52.568;13.402;2023-06-22T10:54:53;5.77;;;5.27;;
781;SDS011;374;52.568;13.402;2023-06-22T10:57:18;4.93;;;4.50;;
781;SDS011;374;52.568;13.402;2023-06-22T10:59:44;5.70;;;4.87;;
781;SDS011;374;52.568;13.402;2023-06-22T11:02:09;5.03;;;4.63;;
781;SDS011;374;52.568;13.402;2023-06-22T11:04:35;4.83;;;4.50;;
781;SDS011;374;52.568;13.402;2023-06-22T11:07:00;5.23;;;4.80;;
781;SDS011;374;52.568;13.402;2023-06-22T11:09:26;5.03;;;4.73;;
781;SDS011;374;52.568;13.402;2023-06-22T11:11:52;7.00;;;5.17;;
781;SDS011;374;52.568;13.402;2023-06-22T11:14:21;5.50;;;5.10;;
781;SDS011;374;52.568;13.402;2023-06-22T11:16:47;5.10;;;4.70;;
781;SDS011;374;52.568;13.402;2023-06-22T11:19:16;4.90;;;4.50;;
781;SDS011;374;52.568;13.402;2023-06-22T11:21:41;5.50;;;5.10;;
781;SDS011;374;52.568;13.402;2023-06-22T11:24:07;6.80;;;5.70;;
781;SDS011;374;52.568;13.402;2023-06-22T11:26:32;5.13;;;4.73;;
781;SDS011;374;52.568;13.402;2023-06-22T11:28:58;6.10;;;5.50;;
781;SDS011;374;52.568;13.402;2023-06-22T11:31:24;7.17;;;5.57;;
781;SDS011;374;52.568;13.402;2023-06-22T11:33:49;5.80;;;5.30;;
781;SDS011;374;52.568;13.402;2023-06-22T11:36:16;4.53;;;4.13;;
781;SDS011;374;52.568;13.402;2023-06-22T11:38:41;5.13;;;4.70;;
781;SDS011;374;52.568;13.402;2023-06-22T11:41:08;5.67;;;5.27;;
781;SDS011;374;52.568;13.402;2023-06-22T11:43:34;5.90;;;5.33;;
781;SDS011;374;52.568;13.402;2023-06-22T11:46:01;5.40;;;4.90;;
781;SDS011;374;52.568;13.402;2023-06-22T11:48:28;5.87;;;5.37;;
781;SDS011;374;52.568;13.402;2023-06-22T11:50:53;5.70;;;5.20;;
781;SDS011;374;52.568;13.402;2023-06-22T11:53:20;5.70;;;5.30;;
781;SDS011;374;52.568;13.402;2023-06-22T11:55:46;5.90;;;5.50;;
781;SDS011;374;52.568;13.402;2023-06-22T11:58:12;7.63;;;6.07;;
781;SDS011;374;52.568;13.402;2023-06-22T12:00:38;6.20;;;5.63;;
781;SDS011;374;52.568;13.402;2023-06-22T12:03:03;6.07;;;5.50;;
781;SDS011;374;52.568;13.402;2023-06-22T12:05:29;5.53;;;5.13;;
781;SDS011;374;52.568;13.402;2023-06-22T12:07:55;5.80;;;5.30;;
781;SDS011;374;52.568;13.402;2023-06-22T12:10:21;6.27;;;5.80;;
781;SDS011;374;52.568;13.402;2023-06-22T12:12:47;5.20;;;4.80;;
781;SDS011;374;52.568;13.402;2023-06-22T12:15:16;5.97;;;5.43;;
781;SDS011;374;52.568;13.402;2023-06-22T12:17:41;5.90;;;5.20;;
781;SDS011;374;52.568;13.402;2023-06-22T12:20:07;5.47;;;5.07;;
781;SDS011;374;52.568;13.402;2023-06-22T12:22:33;5.73;;;5.00;;
781;SDS011;374;52.568;13.402;2023-06-22T12:24:59;5.10;;;4.77;;
781;SDS011;374;52.568;13.402;2023-06-22T12:27:25;7.03;;;6.27;;
781;SDS011;374;52.568;13.402;2023-06-22T12:29:51;5.87;;;5.47;;
781;SDS011;374;52.568;13.402;2023-06-22T12:32:17;5.90;;;5.47;;
781;SDS011;374;52.568;13.402;2023-06-22T12:34:42;6.13;;;5.63;;
781;SDS011;374;52.568;13.402;2023-06-22T12:37:08;5.93;;;5.50;;
781;SDS011;374;52.568;13.402;2023-06-22T12:39:34;5.70;;;5.30;;
781;SDS011;374;52.568;13.402;2023-06-22T12:42:00;5.73;;;5.30;;
781;SDS011;374;52.568;13.402;2023-06-22T12:44:26;6.20;;;4.90;;
781;SDS011;374;52.568;13.402;2023-06-22T12:47:00;7.67;;;7.07;;
781;SDS011;374;52.568;13.402;2023-06-22T12:49:50;6.70;;;6.20;;
781;SDS011;374;52.568;13.402;2023-06-22T12:53:17;6.07;;;5.67;;
781;SDS011;374;52.568;13.402;2023-06-22T13:00:07;6.10;;;5.60;;
781;SDS011;374;52.568;13.402;2023-06-22T13:03:41;6.00;;;5.60;;
781;SDS011;374;52.568;13.402;2023-06-22T13:09:26;7.00;;;6.50;;
781;SDS011;374;52.568;13.402;2023-06-22T13:28:44;5.73;;;5.33;;
781;SDS011;374;52.568;13.402;2023-06-22T13:31:10;6.17;;;5.67;;
781;SDS011;374;52.568;13.402;2023-06-22T13:40:09;9.87;;;8.70;;
781;SDS011;374;52.568;13.402;2023-06-22T13:49:47;7.10;;;6.40;;
781;SDS011;374;52.568;13.402;2023-06-22T13:52:12;7.70;;;7.10;;
781;SDS011;374;52.568;13.402;2023-06-22T13:54:38;7.87;;;7.20;;
781;SDS011;374;52.568;13.402;2023-06-22T13:57:04;7.23;;;6.70;;
781;SDS011;374;52.568;13.402;2023-06-22T13:59:30;6.80;;;6.30;;
781;SDS011;374;52.568;13.402;2023-06-22T14:01:56;7.67;;;7.07;;
781;SDS011;374;52.568;13.402;2023-06-22T14:04:22;6.80;;;6.30;;
781;SDS011;374;52.568;13.402;2023-06-22T14:06:48;8.17;;;7.37;;
781;SDS011;374;52.568;13.402;2023-06-22T14:09:14;7.33;;;6.83;;
781;SDS011;374;52.568;13.402;2023-06-22T14:11:39;7.00;;;6.30;;
781;SDS011;374;52.568;13.402;2023-06-22T14:14:05;7.70;;;7.00;;
781;SDS011;374;52.568;13.402;2023-06-22T14:16:30;7.67;;;6.97;;
781;SDS011;374;52.568;13.402;2023-06-22T14:18:56;8.10;;;7.30;;
781;SDS011;374;52.568;13.402;2023-06-22T14:21:21;7.60;;;6.90;;
781;SDS011;374;52.568;13.402;2023-06-22T14:23:47;8.90;;;8.03;;
781;SDS011;374;52.568;13.402;2023-06-22T14:26:14;8.93;;;8.00;;
781;SDS011;374;52.568;13.402;2023-06-22T14:28:42;7.20;;;6.60;;
781;SDS011;374;52.568;13.402;2023-06-22T14:31:14;8.10;;;7.50;;
781;SDS011;374;52.568;13.402;2023-06-22T14:33:40;7.70;;;7.10;;
781;SDS011;374;52.568;13.402;2023-06-22T14:36:05;8.10;;;7.40;;
781;SDS011;374;52.568;13.402;2023-06-22T14:38:31;8.13;;;7.43;;
781;SDS011;374;52.568;13.402;2023-06-22T14:40:56;8.47;;;7.77;;
781;SDS011;374;52.568;13.402;2023-06-22T14:43:22;7.97;;;7.27;;
781;SDS011;374;52.568;13.402;2023-06-22T14:45:47;7.93;;;7.33;;
781;SDS011;374;52.568;13.402;2023-06-22T14:48:13;7.80;;;7.10;;
781;SDS011;374;52.568;13.402;2023-06-22T14:50:41;8.00;;;7.40;;
781;SDS011;374;52.568;13.402;2023-06-22T14:53:07;8.30;;;7.53;;
781;SDS011;374;52.568;13.402;2023-06-22T14:55:32;7.60;;;7.00;;
781;SDS011;374;52.568;13.402;2023-06-22T14:57:58;9.37;;;7.70;;
781;SDS011;374;52.568;13.402;2023-06-22T15:00:23;7.80;;;7.10;;
781;SDS011;374;52.568;13.402;2023-06-22T15:02:49;7.63;;;6.80;;
781;SDS011;374;52.568;13.402;2023-06-22T15:05:16;7.60;;;6.90;;
781;SDS011;374;52.568;13.402;2023-06-22T15:07:42;6.97;;;6.47;;
781;SDS011;374;52.568;13.402;2023-06-22T15:10:07;8.87;;;8.10;;
781;SDS011;374;52.568;13.402;2023-06-22T15:12:33;7.60;;;7.00;;
781;SDS011;374;52.568;13.402;2023-06-22T15:14:59;7.17;;;6.63;;
781;SDS011;374;52.568;13.402;2023-06-22T15:17:24;8.30;;;7.70;;
781;SDS011;374;52.568;13.402;2023-06-22T15:19:54;7.30;;;6.70;;
781;SDS011;374;52.568;13.402;2023-06-22T15:22:20;8.20;;;7.50;;
781;SDS011;374;52.568;13.402;2023-06-22T15:24:45;7.20;;;6.70;;
781;SDS011;374;52.568;13.402;2023-06-22T15:27:12;7.13;;;6.63;;
781;SDS011;374;52.568;13.402;2023-06-22T15:29:39;7.27;;;6.77;;
781;SDS011;374;52.568;13.402;2023-06-22T15:32:05;7.47;;;6.80;;
781;SDS011;374;52.568;13.402;2023-06-22T15:34:31;6.40;;;5.90;;
781;SDS011;374;52.568;13.402;2023-06-22T15:36:57;7.70;;;7.10;;
781;SDS011;374;52.568;13.402;2023-06-22T15:39:24;7.87;;;7.17;;
781;SDS011;374;52.568;13.402;2023-06-22T15:41:51;8.33;;;7.70;;
781;SDS011;374;52.568;13.402;2023-06-22T15:44:19;8.50;;;7.80;;
781;SDS011;374;52.568;13.402;2023-06-22T15:46:45;7.87;;;7.27;;
781;SDS011;374;52.568;13.402;2023-06-22T15:49:10;8.30;;;7.60;;
781;SDS011;374;52.568;13.402;2023-06-22T15:51:36;8.00;;;7.20;;
781;SDS011;374;52.568;13.402;2023-06-22T15:54:01;9.00;;;8.20;;
781;SDS011;374;52.568;13.402;2023-06-22T15:56:27;8.87;;;8.00;;